createdAt,value
2018-05-15T00:00:00.169Z,44.97
2018-05-15T00:02:29.458Z,50.53
2018-05-15T00:04:58.668Z,44.33
2018-05-15T00:07:27.887Z,47.70
2018-05-15T00:09:57.110Z,43.40
2018-05-15T00:12:26.346Z,39.83
2018-05-15T00:14:55.562Z,49.00
2018-05-15T00:17:24.850Z,52.60
2018-05-15T00:19:54.063Z,45.23
2018-05-15T00:22:23.271Z,46.13
2018-05-15T00:24:52.648Z,47.03
2018-05-15T00:27:21.867Z,50.77
2018-05-15T00:29:51.079Z,52.60
2018-05-15T00:32:22.127Z,48.60
2018-05-15T00:34:51.356Z,43.97
2018-05-15T00:37:20.562Z,50.37
2018-05-15T00:39:49.782Z,47.27
2018-05-15T00:42:18.975Z,46.67
2018-05-15T00:44:48.316Z,44.27
2018-05-15T00:47:17.525Z,36.57
2018-05-15T00:49:46.761Z,40.00
2018-05-15T00:52:15.984Z,42.90
2018-05-15T00:54:45.238Z,45.07
2018-05-15T00:57:14.436Z,44.37
2018-05-15T00:59:43.662Z,42.27
2018-05-15T01:02:12.857Z,36.93
2018-05-15T01:04:42.093Z,42.33
2018-05-15T01:07:11.284Z,37.40
2018-05-15T01:09:40.503Z,43.80
2018-05-15T01:12:09.862Z,36.40
2018-05-15T01:14:39.080Z,38.77
2018-05-15T01:17:08.378Z,38.83
2018-05-15T01:19:37.571Z,39.60
2018-05-15T01:22:06.827Z,40.50
2018-05-15T01:24:36.059Z,42.03
2018-05-15T01:27:05.297Z,41.13
2018-05-15T01:29:34.496Z,39.63
2018-05-15T01:32:03.823Z,42.60
2018-05-15T01:34:33.025Z,37.93
2018-05-15T01:37:02.354Z,40.13
2018-05-15T01:39:31.558Z,41.93
2018-05-15T01:42:00.830Z,34.70
2018-05-15T01:44:30.099Z,50.77
2018-05-15T01:46:59.431Z,39.87
2018-05-15T01:49:28.650Z,44.23
2018-05-15T01:51:57.838Z,43.63
2018-05-15T01:54:27.116Z,48.20
2018-05-15T01:56:56.314Z,57.47
2018-05-15T01:59:25.546Z,50.33
2018-05-15T02:01:54.830Z,47.20
2018-05-15T02:04:24.063Z,57.97
2018-05-15T02:06:53.389Z,43.23
2018-05-15T02:09:22.723Z,45.23
2018-05-15T02:11:51.920Z,46.43
2018-05-15T02:14:21.151Z,40.60
2018-05-15T02:16:50.409Z,51.60
2018-05-15T02:19:19.621Z,42.90
2018-05-15T02:21:48.807Z,50.20
2018-05-15T02:24:18.105Z,43.03
2018-05-15T02:26:47.329Z,36.47
2018-05-15T02:29:16.565Z,41.93
2018-05-15T02:31:45.915Z,38.17
2018-05-15T02:34:15.204Z,38.67
2018-05-15T02:36:44.438Z,38.27
2018-05-15T02:39:13.662Z,43.80
2018-05-15T02:41:42.874Z,41.03
2018-05-15T02:44:12.101Z,44.40
2018-05-15T02:46:41.396Z,37.47
2018-05-15T02:49:10.609Z,33.77
2018-05-15T02:51:39.849Z,41.13
2018-05-15T02:54:09.095Z,43.33
2018-05-15T02:56:38.296Z,38.90
2018-05-15T02:59:07.538Z,35.57
2018-05-15T03:01:36.798Z,37.07
2018-05-15T03:04:06.033Z,39.47
2018-05-15T03:06:35.257Z,38.67
2018-05-15T03:09:04.480Z,40.77
2018-05-15T03:11:33.781Z,44.80
2018-05-15T03:14:02.978Z,42.03
2018-05-15T03:16:32.174Z,38.77
2018-05-15T03:19:01.389Z,39.33
2018-05-15T03:21:30.588Z,40.27
2018-05-15T03:23:59.819Z,37.33
2018-05-15T03:26:29.092Z,40.60
2018-05-15T03:28:58.306Z,41.17
2018-05-15T03:31:27.542Z,42.57
2018-05-15T03:33:56.770Z,42.60
2018-05-15T03:36:25.993Z,43.00
2018-05-15T03:38:55.229Z,48.20
2018-05-15T03:41:24.446Z,44.70
2018-05-15T03:43:53.716Z,42.83
2018-05-15T03:46:22.955Z,38.13
2018-05-15T03:48:52.170Z,38.63
2018-05-15T03:51:21.402Z,38.30
2018-05-15T03:53:50.766Z,38.53
2018-05-15T03:56:20.003Z,45.87
2018-05-15T03:58:49.198Z,41.90
2018-05-15T04:01:24.307Z,38.07
2018-05-15T04:03:59.432Z,40.80
2018-05-15T04:06:34.522Z,49.97
2018-05-15T04:09:03.748Z,42.47
2018-05-15T04:11:33.069Z,39.70
2018-05-15T04:14:02.289Z,32.43
2018-05-15T04:16:31.502Z,39.53
2018-05-15T04:19:00.711Z,36.07
2018-05-15T04:21:29.927Z,38.20
2018-05-15T04:23:59.141Z,33.07
2018-05-15T04:26:28.466Z,35.00
2018-05-15T04:28:57.663Z,39.63
2018-05-15T04:31:26.886Z,33.13
2018-05-15T04:33:56.103Z,38.23
2018-05-15T04:36:25.289Z,32.90
2018-05-15T04:38:54.506Z,35.43
2018-05-15T04:41:23.723Z,39.30
2018-05-15T04:43:53.047Z,38.90
2018-05-15T04:46:22.179Z,35.20
2018-05-15T04:48:51.550Z,37.73
2018-05-15T04:51:20.907Z,35.10
2018-05-15T04:53:50.129Z,38.10
2018-05-15T04:56:19.390Z,35.63
2018-05-15T04:58:48.608Z,38.00
2018-05-15T05:01:17.798Z,34.40
2018-05-15T05:03:47.175Z,36.20
2018-05-15T05:06:16.474Z,32.30
2018-05-15T05:08:45.678Z,32.50
2018-05-15T05:11:14.944Z,35.97
2018-05-15T05:13:44.148Z,37.60
2018-05-15T05:16:13.372Z,31.20
2018-05-15T05:18:42.709Z,33.40
2018-05-15T05:21:11.926Z,32.70
2018-05-15T05:23:41.149Z,32.43
2018-05-15T05:26:10.377Z,34.77
2018-05-15T05:28:39.590Z,37.80
2018-05-15T05:31:08.851Z,26.57
2018-05-15T05:33:38.095Z,31.60
2018-05-15T05:36:07.295Z,32.67
2018-05-15T05:38:36.506Z,33.03
2018-05-15T05:41:05.732Z,29.70
2018-05-15T05:43:34.927Z,30.90
2018-05-15T05:46:04.252Z,43.23
2018-05-15T05:48:33.430Z,30.37
2018-05-15T05:51:02.607Z,36.40
2018-05-15T05:53:31.831Z,28.50
2018-05-15T05:56:01.023Z,31.40
2018-05-15T05:58:30.246Z,31.20
2018-05-15T06:00:59.452Z,29.13
2018-05-15T06:03:28.702Z,28.07
2018-05-15T06:05:57.899Z,28.10
2018-05-15T06:08:27.122Z,25.97
2018-05-15T06:10:56.318Z,34.93
2018-05-15T06:13:25.590Z,23.90
2018-05-15T06:15:54.830Z,29.10
2018-05-15T06:18:24.065Z,29.43
2018-05-15T06:20:53.278Z,31.77
2018-05-15T06:23:22.627Z,28.40
2018-05-15T06:25:51.812Z,29.73
2018-05-15T06:28:21.024Z,26.10
2018-05-15T06:30:50.329Z,29.33
2018-05-15T06:33:19.607Z,33.20
2018-05-15T06:35:48.791Z,29.43
2018-05-15T06:38:17.985Z,29.17
2018-05-15T06:40:47.195Z,28.17
2018-05-15T06:43:16.397Z,35.13
2018-05-15T06:45:45.619Z,28.83
2018-05-15T06:48:14.807Z,29.47
2018-05-15T06:50:44.037Z,25.57
2018-05-15T06:53:13.263Z,25.40
2018-05-15T06:55:42.656Z,33.60
2018-05-15T06:58:11.881Z,24.57
2018-05-15T07:00:42.102Z,31.73
2018-05-15T07:03:11.282Z,29.90
2018-05-15T07:05:40.500Z,27.97
2018-05-15T07:08:09.700Z,24.60
2018-05-15T07:10:38.898Z,20.60
2018-05-15T07:13:08.101Z,25.10
2018-05-15T07:15:37.274Z,24.80
2018-05-15T07:18:06.488Z,28.03
2018-05-15T07:20:35.685Z,21.50
2018-05-15T07:23:04.963Z,21.20
2018-05-15T07:25:34.162Z,22.43
2018-05-15T07:28:03.362Z,22.67
2018-05-15T07:30:32.549Z,25.97
2018-05-15T07:33:01.765Z,24.13
2018-05-15T07:35:30.963Z,22.60
2018-05-15T07:38:00.165Z,23.30
2018-05-15T07:40:29.359Z,24.23
2018-05-15T07:42:58.571Z,18.10
2018-05-15T07:45:27.909Z,17.60
2018-05-15T07:47:57.086Z,21.00
2018-05-15T07:50:26.304Z,20.17
2018-05-15T07:52:55.540Z,18.37
2018-05-15T07:55:24.758Z,18.03
2018-05-15T07:57:54.039Z,19.27
2018-05-15T08:00:23.246Z,22.13
2018-05-15T08:02:52.433Z,17.33
2018-05-15T08:05:21.651Z,15.57
2018-05-15T08:07:51.036Z,16.43
2018-05-15T08:10:20.260Z,20.30
2018-05-15T08:12:49.447Z,17.87
2018-05-15T08:15:18.676Z,16.90
2018-05-15T08:17:47.898Z,16.70
2018-05-15T08:20:17.127Z,14.87
2018-05-15T08:22:46.420Z,15.40
2018-05-15T08:25:15.627Z,13.03
2018-05-15T08:27:44.883Z,14.13
2018-05-15T08:30:14.098Z,13.60
2018-05-15T08:32:43.291Z,15.50
2018-05-15T08:35:12.512Z,11.90
2018-05-15T08:37:41.848Z,11.80
2018-05-15T08:40:11.026Z,13.80
2018-05-15T08:42:40.226Z,11.20
2018-05-15T08:45:09.533Z,11.27
2018-05-15T08:47:38.732Z,12.17
2018-05-15T08:50:07.975Z,9.40
2018-05-15T08:52:37.158Z,14.70
2018-05-15T08:55:06.479Z,8.83
2018-05-15T08:57:35.664Z,9.80
2018-05-15T09:00:04.890Z,13.70
2018-05-15T09:02:34.084Z,10.87
2018-05-15T09:05:03.354Z,10.13
2018-05-15T09:07:32.678Z,10.53
2018-05-15T09:10:01.924Z,10.30
2018-05-15T09:12:31.140Z,9.67
2018-05-15T09:15:00.370Z,9.20
2018-05-15T09:17:29.569Z,13.83
2018-05-15T09:19:58.785Z,9.40
2018-05-15T09:22:28.015Z,9.73
2018-05-15T09:24:57.191Z,9.10
2018-05-15T09:27:26.461Z,11.00
2018-05-15T09:29:55.666Z,9.93
2018-05-15T09:32:24.858Z,10.33
2018-05-15T09:34:54.037Z,9.50
2018-05-15T09:37:23.286Z,10.40
2018-05-15T09:39:52.482Z,10.57
2018-05-15T09:42:21.692Z,10.23
2018-05-15T09:44:50.897Z,11.23
2018-05-15T09:47:20.090Z,10.20
2018-05-15T09:49:49.296Z,10.73
2018-05-15T09:52:18.544Z,10.37
2018-05-15T09:54:47.798Z,9.50
2018-05-15T09:57:17.025Z,10.53
2018-05-15T09:59:46.214Z,9.03
2018-05-15T10:02:15.489Z,10.73
2018-05-15T10:04:44.755Z,8.00
2018-05-15T10:07:13.933Z,12.80
2018-05-15T10:09:43.118Z,8.90
2018-05-15T10:12:12.326Z,9.63
2018-05-15T10:14:41.530Z,9.13
2018-05-15T10:17:10.797Z,11.90
2018-05-15T10:19:40.025Z,10.53
2018-05-15T10:22:09.249Z,12.70
2018-05-15T10:24:38.444Z,8.57
2018-05-15T10:27:07.772Z,11.23
2018-05-15T10:29:37.018Z,12.47
2018-05-15T10:32:06.315Z,16.90
2018-05-15T10:34:35.512Z,13.30
2018-05-15T10:37:04.793Z,8.17
2018-05-15T10:39:33.997Z,8.57
2018-05-15T10:42:03.300Z,11.07
2018-05-15T10:44:32.479Z,12.97
2018-05-15T10:47:01.700Z,8.83
2018-05-15T10:49:30.886Z,7.57
2018-05-15T10:52:00.106Z,12.30
2018-05-15T10:54:29.291Z,9.13
2018-05-15T10:56:58.486Z,8.07
2018-05-15T10:59:27.730Z,7.90
2018-05-15T11:01:56.929Z,9.67
2018-05-15T11:04:26.111Z,7.90
2018-05-15T11:06:55.331Z,7.43
2018-05-15T11:09:24.521Z,9.33
2018-05-15T11:11:53.743Z,8.07
2018-05-15T11:14:22.932Z,11.07
2018-05-15T11:16:52.136Z,7.93
2018-05-15T11:19:27.360Z,10.03
2018-05-15T11:22:02.554Z,11.13
2018-05-15T11:24:37.775Z,15.90
2018-05-15T11:27:07.086Z,9.73
2018-05-15T11:29:36.273Z,9.07
2018-05-15T11:32:05.484Z,8.17
2018-05-15T11:34:34.779Z,8.87
2018-05-15T11:37:03.969Z,10.17
2018-05-15T11:39:33.183Z,6.63
2018-05-15T11:42:02.392Z,8.87
2018-05-15T11:44:31.609Z,8.30
2018-05-15T11:47:00.798Z,8.27
2018-05-15T11:49:31.181Z,8.30
2018-05-15T11:52:00.240Z,8.17
2018-05-15T11:54:28.596Z,6.50
2018-05-15T11:56:57.784Z,8.13
2018-05-15T11:59:27.021Z,7.90
2018-05-15T12:01:56.213Z,11.00
2018-05-15T12:04:25.463Z,9.33
2018-05-15T12:06:54.652Z,8.47
2018-05-15T12:09:23.959Z,10.63
2018-05-15T12:11:53.165Z,6.57
2018-05-15T12:14:22.379Z,9.50
2018-05-15T12:16:51.612Z,6.90
2018-05-15T12:19:20.836Z,9.70
2018-05-15T12:21:50.362Z,7.97
2018-05-15T12:24:19.713Z,6.67
2018-05-15T12:26:48.933Z,11.10
2018-05-15T12:29:18.142Z,7.40
2018-05-15T12:31:47.341Z,6.90
2018-05-15T12:34:16.653Z,5.83
2018-05-15T12:36:45.851Z,5.97
2018-05-15T12:39:15.159Z,5.80
2018-05-15T12:41:44.514Z,7.37
2018-05-15T12:44:13.173Z,6.40
2018-05-15T12:46:41.597Z,6.40
2018-05-15T12:49:09.964Z,5.10
2018-05-15T12:51:38.024Z,5.63
2018-05-15T12:54:06.512Z,7.17
2018-05-15T12:56:34.851Z,7.33
2018-05-15T12:59:03.175Z,9.40
2018-05-15T13:01:31.542Z,5.40
2018-05-15T13:03:59.851Z,5.93
2018-05-15T13:06:28.195Z,6.90
2018-05-15T13:08:56.503Z,5.50
2018-05-15T13:11:24.839Z,9.27
2018-05-15T13:13:53.156Z,6.70
2018-05-15T13:16:21.486Z,5.40
2018-05-15T13:18:49.800Z,4.73
2018-05-15T13:21:18.141Z,7.87
2018-05-15T13:23:46.496Z,8.53
2018-05-15T13:26:14.828Z,5.07
2018-05-15T13:28:43.141Z,5.30
2018-05-15T13:31:11.487Z,5.73
2018-05-15T13:33:39.804Z,5.60
2018-05-15T13:36:08.148Z,7.20
2018-05-15T13:38:36.459Z,5.10
2018-05-15T13:41:05.601Z,4.90
2018-05-15T13:43:33.167Z,6.50
2018-05-15T13:46:01.723Z,5.10
2018-05-15T13:48:29.680Z,5.13
2018-05-15T13:50:57.979Z,6.00
2018-05-15T13:53:26.467Z,6.63
2018-05-15T13:55:54.788Z,4.03
2018-05-15T13:58:23.140Z,5.33
2018-05-15T14:00:51.450Z,3.87
2018-05-15T14:03:19.817Z,4.80
2018-05-15T14:05:48.191Z,3.53
2018-05-15T14:08:16.527Z,4.23
2018-05-15T14:10:45.003Z,5.10
2018-05-15T14:13:13.014Z,3.37
2018-05-15T14:15:41.467Z,3.20
2018-05-15T14:18:09.879Z,5.03
2018-05-15T14:20:38.215Z,3.30
2018-05-15T14:23:06.548Z,4.17
2018-05-15T14:25:34.856Z,4.20
2018-05-15T14:28:03.254Z,6.33
2018-05-15T14:30:31.216Z,6.63
2018-05-15T14:32:59.569Z,6.37
2018-05-15T14:35:27.874Z,5.73
2018-05-15T14:37:56.244Z,4.43
2018-05-15T14:40:24.552Z,4.93
2018-05-15T14:43:04.654Z,5.50
2018-05-15T14:45:32.223Z,8.40
2018-05-15T14:47:59.817Z,4.60
2018-05-15T14:50:27.769Z,5.80
2018-05-15T14:52:56.187Z,4.57
2018-05-15T14:55:24.169Z,5.77
2018-05-15T14:58:03.607Z,7.50
2018-05-15T15:00:31.961Z,3.87
2018-05-15T15:03:00.269Z,5.10
2018-05-15T15:05:28.686Z,4.03
2018-05-15T15:07:57.004Z,3.73
2018-05-15T15:10:25.351Z,5.20
2018-05-15T15:12:56.689Z,7.83
2018-05-15T15:15:24.871Z,5.10
2018-05-15T15:17:54.059Z,5.00
2018-05-15T15:20:23.281Z,3.90
2018-05-15T15:22:52.528Z,6.40
2018-05-15T15:25:21.859Z,4.00
2018-05-15T15:27:51.037Z,4.13
2018-05-15T15:30:20.265Z,4.77
2018-05-15T15:32:49.474Z,6.37
2018-05-15T15:35:18.754Z,4.83
2018-05-15T15:37:48.056Z,3.30
2018-05-15T15:40:17.279Z,4.40
2018-05-15T15:42:46.454Z,7.70
2018-05-15T15:45:15.750Z,4.27
2018-05-15T15:47:45.064Z,3.87
2018-05-15T15:50:14.292Z,7.17
2018-05-15T15:52:43.553Z,3.97
2018-05-15T15:55:12.781Z,5.67
2018-05-15T15:57:41.998Z,4.97
2018-05-15T16:00:11.208Z,3.87
2018-05-15T16:02:40.410Z,4.13
2018-05-15T16:05:09.618Z,5.43
2018-05-15T16:07:38.839Z,4.63
2018-05-15T16:10:08.271Z,4.70
2018-05-15T16:12:37.274Z,5.70
2018-05-15T16:15:06.634Z,8.17
2018-05-15T16:17:35.856Z,6.30
2018-05-15T16:20:05.110Z,10.53
2018-05-15T16:22:34.319Z,6.50
2018-05-15T16:25:03.542Z,6.83
2018-05-15T16:27:32.750Z,9.60
2018-05-15T16:30:01.979Z,20.20
2018-05-15T16:32:31.192Z,19.00
2018-05-15T16:35:00.497Z,11.87
2018-05-15T16:37:29.730Z,8.03
2018-05-15T16:39:58.912Z,9.93
2018-05-15T16:42:28.133Z,12.93
2018-05-15T16:44:57.318Z,10.07
2018-05-15T16:47:26.621Z,8.23
2018-05-15T16:49:55.818Z,16.80
2018-05-15T16:52:25.110Z,21.90
2018-05-15T16:54:54.310Z,17.00
2018-05-15T16:57:23.614Z,10.10
2018-05-15T16:59:52.806Z,12.70
2018-05-15T17:02:22.041Z,7.07
2018-05-15T17:04:51.234Z,10.53
2018-05-15T17:07:20.454Z,15.60
2018-05-15T17:09:49.649Z,7.40
2018-05-15T17:12:18.905Z,9.27
2018-05-15T17:14:48.087Z,7.83
2018-05-15T17:17:17.290Z,10.03
2018-05-15T17:19:46.707Z,8.20
2018-05-15T17:22:15.916Z,8.07
2018-05-15T17:24:45.111Z,10.73
2018-05-15T17:27:14.342Z,7.60
2018-05-15T17:29:43.599Z,6.90
2018-05-15T17:32:12.843Z,7.77
2018-05-15T17:34:42.051Z,6.70
2018-05-15T17:37:11.276Z,7.87
2018-05-15T17:39:40.534Z,6.33
2018-05-15T17:42:09.890Z,5.00
2018-05-15T17:44:39.096Z,4.87
2018-05-15T17:47:08.282Z,4.53
2018-05-15T17:49:37.521Z,4.47
2018-05-15T17:52:06.773Z,10.43
2018-05-15T17:54:36.035Z,6.00
2018-05-15T17:57:05.269Z,9.13
2018-05-15T17:59:34.496Z,4.70
2018-05-15T18:02:03.766Z,6.50
2018-05-15T18:04:32.969Z,6.60
2018-05-15T18:07:02.175Z,4.47
2018-05-15T18:09:31.416Z,5.03
2018-05-15T18:12:00.627Z,6.83
2018-05-15T18:14:29.830Z,5.80
2018-05-15T18:16:59.031Z,7.50
2018-05-15T18:19:28.276Z,3.63
2018-05-15T18:21:57.468Z,4.50
2018-05-15T18:24:26.759Z,4.50
2018-05-15T18:26:55.947Z,4.57
2018-05-15T18:29:25.170Z,4.57
2018-05-15T18:31:54.359Z,3.53
2018-05-15T18:34:24.432Z,5.03
2018-05-15T18:36:53.679Z,4.30
2018-05-15T18:39:22.889Z,6.47
2018-05-15T18:41:52.350Z,8.93
2018-05-15T18:44:21.658Z,4.47
2018-05-15T18:46:50.871Z,8.90
2018-05-15T18:49:20.091Z,5.10
2018-05-15T18:51:49.388Z,4.63
2018-05-15T18:54:18.755Z,4.90
2018-05-15T18:56:47.992Z,6.67
2018-05-15T18:59:17.565Z,6.90
2018-05-15T19:01:46.817Z,5.50
2018-05-15T19:04:16.034Z,5.73
2018-05-15T19:06:45.311Z,10.43
2018-05-15T19:09:14.670Z,6.20
2018-05-15T19:11:43.879Z,5.60
2018-05-15T19:14:13.080Z,4.70
2018-05-15T19:16:42.310Z,6.27
2018-05-15T19:19:11.618Z,4.50
2018-05-15T19:21:40.784Z,5.80
2018-05-15T19:24:09.985Z,5.90
2018-05-15T19:26:39.211Z,15.83
2018-05-15T19:29:08.414Z,5.37
2018-05-15T19:31:37.643Z,8.13
2018-05-15T19:34:12.708Z,7.03
2018-05-15T19:36:47.740Z,6.90
2018-05-15T19:39:17.003Z,5.27
2018-05-15T19:41:46.246Z,6.77
2018-05-15T19:44:15.484Z,6.10
2018-05-15T19:46:44.801Z,6.20
2018-05-15T19:49:15.189Z,8.67
2018-05-15T19:51:44.422Z,5.37
2018-05-15T19:54:13.741Z,5.27
2018-05-15T19:56:42.935Z,8.10
2018-05-15T19:59:12.320Z,5.40
2018-05-15T20:01:41.628Z,5.53
2018-05-15T20:04:11.002Z,5.83
2018-05-15T20:06:40.423Z,12.03
2018-05-15T20:09:09.700Z,7.53
2018-05-15T20:11:38.950Z,6.73
2018-05-15T20:14:08.172Z,7.80
2018-05-15T20:16:37.386Z,13.13
2018-05-15T20:19:06.686Z,6.20
2018-05-15T20:21:35.935Z,5.20
2018-05-15T20:24:05.296Z,8.73
2018-05-15T20:26:34.519Z,6.23
2018-05-15T20:29:03.726Z,5.73
2018-05-15T20:31:32.959Z,11.03
2018-05-15T20:34:02.165Z,5.50
2018-05-15T20:36:31.392Z,5.40
2018-05-15T20:39:00.603Z,7.67
2018-05-15T20:41:29.878Z,7.80
2018-05-15T20:43:59.074Z,6.87
2018-05-15T20:46:28.314Z,8.80
2018-05-15T20:48:57.535Z,6.83
2018-05-15T20:51:26.747Z,7.67
2018-05-15T20:53:55.948Z,7.20
2018-05-15T20:56:25.162Z,9.20
2018-05-15T20:58:54.411Z,6.63
2018-05-15T21:01:23.623Z,8.93
2018-05-15T21:03:52.795Z,7.43
2018-05-15T21:06:22.013Z,6.73
2018-05-15T21:08:51.204Z,10.50
2018-05-15T21:11:20.413Z,7.63
2018-05-15T21:13:49.610Z,7.70
2018-05-15T21:16:18.814Z,7.60
2018-05-15T21:18:48.016Z,6.60
2018-05-15T21:21:17.246Z,6.93
2018-05-15T21:23:46.438Z,6.50
2018-05-15T21:26:15.628Z,6.40
2018-05-15T21:28:44.833Z,6.17
2018-05-15T21:31:14.036Z,8.00
2018-05-15T21:33:43.250Z,8.50
2018-05-15T21:36:12.493Z,10.20
2018-05-15T21:38:41.720Z,7.60
2018-05-15T21:41:10.956Z,28.73
2018-05-15T21:43:40.179Z,7.60
2018-05-15T21:46:09.378Z,7.93
2018-05-15T21:48:38.590Z,7.90
2018-05-15T21:51:07.828Z,8.77
2018-05-15T21:53:37.056Z,7.17
2018-05-15T21:56:06.252Z,6.27
2018-05-15T21:58:35.466Z,8.90
2018-05-15T22:01:04.668Z,9.23
2018-05-15T22:03:33.916Z,10.30
2018-05-15T22:06:03.170Z,7.40
2018-05-15T22:08:32.445Z,11.97
2018-05-15T22:11:07.565Z,7.07
2018-05-15T22:13:42.590Z,6.77
2018-05-15T22:16:17.776Z,8.93
2018-05-15T22:18:53.871Z,10.23
2018-05-15T22:21:28.971Z,7.40
2018-05-15T22:23:57.937Z,7.03
2018-05-15T22:26:27.169Z,7.27
2018-05-15T22:28:56.694Z,8.80
2018-05-15T22:31:25.933Z,14.40
2018-05-15T22:33:55.126Z,6.93
2018-05-15T22:36:24.340Z,8.67
2018-05-15T22:38:53.536Z,7.57
2018-05-15T22:41:22.772Z,11.40
2018-05-15T22:43:51.965Z,8.50
2018-05-15T22:46:21.186Z,9.60
2018-05-15T22:48:50.394Z,7.00
2018-05-15T22:51:19.601Z,7.90
2018-05-15T22:53:48.810Z,10.60
2018-05-15T22:56:18.005Z,11.17
2018-05-15T22:58:47.234Z,12.93
2018-05-15T23:01:16.442Z,10.77
2018-05-15T23:03:45.709Z,15.33
2018-05-15T23:06:14.915Z,13.93
2018-05-15T23:08:44.141Z,13.00
2018-05-15T23:11:13.331Z,14.43
2018-05-15T23:13:42.558Z,13.17
2018-05-15T23:16:11.767Z,13.87
2018-05-15T23:18:41.110Z,14.47
2018-05-15T23:21:10.336Z,16.00
2018-05-15T23:23:39.567Z,14.93
2018-05-15T23:26:08.766Z,14.70
2018-05-15T23:28:38.059Z,18.50
2018-05-15T23:31:07.247Z,15.60
2018-05-15T23:33:36.436Z,15.07
2018-05-15T23:36:05.638Z,16.37
2018-05-15T23:38:34.835Z,13.80
2018-05-15T23:41:04.046Z,19.07
2018-05-15T23:43:33.234Z,19.70
2018-05-15T23:46:02.465Z,17.17
2018-05-15T23:48:31.667Z,21.53
2018-05-15T23:51:00.948Z,20.43
2018-05-15T23:53:30.142Z,19.87
2018-05-15T23:55:59.366Z,20.03
2018-05-15T23:58:28.565Z,18.97
